createdAt,value
2019-03-03T00:00:41.216Z,6.80
2019-03-03T00:01:41.159Z,7.30
2019-03-03T00:02:41.145Z,6.50
2019-03-03T00:03:41.074Z,5.90
2019-03-03T00:04:41.058Z,5.30
2019-03-03T00:05:41.061Z,6.80
2019-03-03T00:06:41.113Z,6.40
2019-03-03T00:07:41.030Z,5.80
2019-03-03T00:08:41.077Z,5.20
2019-03-03T00:09:41.032Z,5.50
2019-03-03T00:10:41.019Z,5.10
2019-03-03T00:11:41.033Z,4.10
2019-03-03T00:12:40.978Z,4.10
2019-03-03T00:13:41.018Z,3.90
2019-03-03T00:14:40.991Z,3.70
2019-03-03T00:15:41.082Z,3.70
2019-03-03T00:16:41.157Z,3.70
2019-03-03T00:17:41.065Z,3.60
2019-03-03T00:18:40.952Z,3.50
2019-03-03T00:19:40.923Z,3.50
2019-03-03T00:20:40.902Z,3.70
2019-03-03T00:21:41.034Z,3.70
2019-03-03T00:22:40.891Z,3.50
2019-03-03T00:23:40.901Z,3.90
2019-03-03T00:24:40.907Z,4.00
2019-03-03T00:25:40.840Z,3.80
2019-03-03T00:26:40.837Z,3.70
2019-03-03T00:27:40.808Z,3.80
2019-03-03T00:28:40.809Z,3.60
2019-03-03T00:29:40.789Z,3.60
2019-03-03T00:30:40.777Z,3.40
2019-03-03T00:31:40.784Z,3.40
2019-03-03T00:32:40.757Z,3.50
2019-03-03T00:33:40.745Z,3.80
2019-03-03T00:34:40.749Z,3.70
2019-03-03T00:35:40.733Z,3.80
2019-03-03T00:36:40.749Z,3.80
2019-03-03T00:37:40.709Z,4.10
2019-03-03T00:38:40.689Z,3.50
2019-03-03T00:39:40.681Z,4.10
2019-03-03T00:40:40.667Z,3.70
2019-03-03T00:41:40.655Z,3.80
2019-03-03T00:42:40.661Z,3.80
2019-03-03T00:43:40.702Z,3.90
2019-03-03T00:44:40.629Z,4.60
2019-03-03T00:45:40.619Z,4.10
2019-03-03T00:46:40.707Z,5.00
2019-03-03T00:47:40.699Z,3.90
2019-03-03T00:48:40.582Z,3.50
2019-03-03T00:49:40.577Z,3.60
2019-03-03T00:50:40.563Z,3.60
2019-03-03T00:51:40.555Z,3.70
2019-03-03T00:52:40.558Z,3.70
2019-03-03T00:53:40.532Z,3.70
2019-03-03T00:54:40.524Z,3.80
2019-03-03T00:55:40.511Z,3.50
2019-03-03T00:56:40.505Z,3.50
2019-03-03T00:57:40.535Z,3.60
2019-03-03T00:58:40.477Z,3.90
2019-03-03T00:59:40.468Z,3.70
2019-03-03T01:00:40.454Z,3.80
2019-03-03T01:01:40.447Z,3.70
2019-03-03T01:02:40.441Z,3.50
2019-03-03T01:03:40.439Z,3.70
2019-03-03T01:04:40.420Z,3.70
2019-03-03T01:05:40.408Z,3.40
2019-03-03T01:06:40.399Z,3.60
2019-03-03T01:07:40.387Z,3.60
2019-03-03T01:08:40.396Z,3.70
2019-03-03T01:09:40.365Z,3.70
2019-03-03T01:10:40.356Z,3.50
2019-03-03T01:11:40.342Z,3.70
2019-03-03T01:12:40.334Z,3.60
2019-03-03T01:13:40.338Z,3.80
2019-03-03T01:14:40.315Z,3.80
2019-03-03T01:15:40.297Z,4.10
2019-03-03T01:16:40.291Z,3.60
2019-03-03T01:17:40.279Z,4.00
2019-03-03T01:18:40.289Z,3.90
2019-03-03T01:19:40.260Z,3.60
2019-03-03T01:20:40.246Z,3.50
2019-03-03T01:21:40.236Z,3.70
2019-03-03T01:22:40.226Z,3.70
2019-03-03T01:23:40.238Z,3.70
2019-03-03T01:24:40.207Z,3.40
2019-03-03T01:25:40.190Z,3.80
2019-03-03T01:26:40.183Z,3.70
2019-03-03T01:27:40.171Z,3.50
2019-03-03T01:28:40.172Z,3.80
2019-03-03T01:29:40.171Z,3.80
2019-03-03T01:30:40.141Z,3.80
2019-03-03T01:31:40.137Z,3.80
2019-03-03T01:32:40.123Z,3.60
2019-03-03T01:33:40.105Z,3.90
2019-03-03T01:34:40.121Z,3.60
2019-03-03T01:35:40.091Z,3.80
2019-03-03T01:36:40.113Z,3.80
2019-03-03T01:37:40.074Z,3.80
2019-03-03T01:38:40.058Z,3.40
2019-03-03T01:39:40.064Z,3.60
2019-03-03T01:40:40.052Z,4.10
2019-03-03T01:41:40.028Z,3.70
2019-03-03T01:42:40.021Z,3.80
2019-03-03T01:43:40.008Z,3.50
2019-03-03T01:44:40.005Z,3.70
2019-03-03T01:45:39.995Z,3.50
2019-03-03T01:46:39.983Z,3.70
2019-03-03T01:47:39.965Z,3.80
2019-03-03T01:48:39.979Z,3.80
2019-03-03T01:49:39.965Z,3.50
2019-03-03T01:50:39.934Z,3.70
2019-03-03T01:51:39.923Z,3.40
2019-03-03T01:52:39.911Z,3.60
2019-03-03T01:53:39.899Z,3.60
2019-03-03T01:54:39.888Z,3.50
2019-03-03T01:55:39.893Z,4.00
2019-03-03T01:56:39.874Z,3.90
2019-03-03T01:57:39.861Z,3.60
2019-03-03T01:58:39.848Z,3.60
2019-03-03T01:59:39.833Z,3.50
2019-03-03T02:00:39.840Z,3.70
2019-03-03T02:01:39.816Z,3.60
2019-03-03T02:02:39.803Z,3.60
2019-03-03T02:03:39.796Z,3.80
2019-03-03T02:04:39.784Z,3.80
2019-03-03T02:05:39.785Z,3.80
2019-03-03T02:06:39.764Z,3.70
2019-03-03T02:07:39.752Z,3.70
2019-03-03T02:08:39.745Z,3.70
2019-03-03T02:09:39.734Z,3.30
2019-03-03T02:10:39.758Z,4.00
2019-03-03T02:11:39.719Z,3.50
2019-03-03T02:12:39.698Z,3.50
2019-03-03T02:13:39.695Z,3.70
2019-03-03T02:14:39.680Z,3.90
2019-03-03T02:15:39.677Z,3.70
2019-03-03T02:16:39.676Z,4.00
2019-03-03T02:17:39.654Z,3.90
2019-03-03T02:18:39.638Z,3.80
2019-03-03T02:19:39.630Z,3.50
2019-03-03T02:20:39.618Z,3.70
2019-03-03T02:21:39.630Z,3.90
2019-03-03T02:22:39.591Z,3.90
2019-03-03T02:23:39.586Z,3.60
2019-03-03T02:24:39.574Z,3.70
2019-03-03T02:25:39.566Z,3.80
2019-03-03T02:26:39.568Z,3.70
2019-03-03T02:27:39.549Z,3.80
2019-03-03T02:28:39.532Z,3.60
2019-03-03T02:29:39.525Z,3.70
2019-03-03T02:30:39.514Z,3.80
2019-03-03T02:31:39.525Z,3.60
2019-03-03T02:32:39.490Z,3.90
2019-03-03T02:33:39.490Z,3.60
2019-03-03T02:34:39.473Z,3.90
2019-03-03T02:35:39.465Z,3.80
2019-03-03T02:36:39.484Z,3.90
2019-03-03T02:37:39.438Z,3.90
2019-03-03T02:38:39.433Z,3.90
2019-03-03T02:39:39.437Z,3.60
2019-03-03T02:40:39.411Z,4.10
2019-03-03T02:41:39.395Z,3.50
2019-03-03T02:42:39.402Z,3.80
2019-03-03T02:43:39.376Z,3.60
2019-03-03T02:44:39.365Z,3.80
2019-03-03T02:45:39.352Z,3.90
2019-03-03T02:46:39.342Z,3.70
2019-03-03T02:47:39.355Z,3.70
2019-03-03T02:48:39.320Z,3.70
2019-03-03T02:49:39.313Z,3.80
2019-03-03T02:50:39.300Z,3.90
2019-03-03T02:51:39.296Z,3.60
2019-03-03T02:52:39.295Z,3.70
2019-03-03T02:53:39.279Z,3.90
2019-03-03T02:54:39.267Z,3.90
2019-03-03T02:55:39.262Z,3.90
2019-03-03T02:56:39.237Z,3.80
2019-03-03T02:57:39.245Z,3.70
2019-03-03T02:58:39.225Z,3.80
2019-03-03T02:59:39.209Z,3.80
2019-03-03T03:00:39.200Z,3.40
2019-03-03T03:01:39.190Z,3.80
2019-03-03T03:02:39.216Z,3.60
2019-03-03T03:03:39.167Z,3.80
2019-03-03T03:04:39.159Z,3.70
2019-03-03T03:05:39.146Z,3.70
2019-03-03T03:06:39.136Z,3.70
2019-03-03T03:07:39.130Z,4.00
2019-03-03T03:08:39.127Z,3.80
2019-03-03T03:09:39.101Z,4.00
2019-03-03T03:10:39.092Z,3.80
2019-03-03T03:11:39.085Z,3.70
2019-03-03T03:12:39.069Z,4.10
2019-03-03T03:13:39.074Z,3.60
2019-03-03T03:14:39.046Z,3.60
2019-03-03T03:15:40.525Z,3.90
2019-03-03T03:16:39.032Z,3.90
2019-03-03T03:17:39.025Z,4.00
2019-03-03T03:18:39.025Z,3.60
2019-03-03T03:19:38.996Z,3.80
2019-03-03T03:20:39.002Z,3.80
2019-03-03T03:21:38.973Z,3.60
2019-03-03T03:22:38.967Z,3.70
2019-03-03T03:23:38.965Z,3.40
2019-03-03T03:24:38.944Z,3.80
2019-03-03T03:25:38.935Z,3.70
2019-03-03T03:26:38.929Z,3.40
2019-03-03T03:27:38.914Z,3.90
2019-03-03T03:28:38.923Z,3.70
2019-03-03T03:29:38.895Z,4.00
2019-03-03T03:30:38.885Z,3.40
2019-03-03T03:31:38.869Z,3.30
2019-03-03T03:32:38.861Z,3.60
2019-03-03T03:33:38.879Z,3.50
2019-03-03T03:34:38.836Z,3.50
2019-03-03T03:35:38.825Z,3.50
2019-03-03T03:36:38.813Z,3.60
2019-03-03T03:37:38.804Z,3.40
2019-03-03T03:38:38.794Z,3.40
2019-03-03T03:39:38.809Z,3.40
2019-03-03T03:40:38.773Z,3.60
2019-03-03T03:41:38.761Z,3.70
2019-03-03T03:42:38.754Z,3.60
2019-03-03T03:43:38.745Z,3.20
2019-03-03T03:44:38.758Z,3.90
2019-03-03T03:45:38.735Z,3.70
2019-03-03T03:46:38.716Z,3.50
2019-03-03T03:47:38.697Z,3.60
2019-03-03T03:48:38.690Z,4.00
2019-03-03T03:49:38.714Z,3.80
2019-03-03T03:50:38.674Z,3.80
2019-03-03T03:51:38.655Z,3.50
2019-03-03T03:52:38.651Z,3.50
2019-03-03T03:53:38.641Z,3.50
2019-03-03T03:54:38.659Z,3.50
2019-03-03T03:55:38.619Z,3.60
2019-03-03T03:56:38.611Z,3.60
2019-03-03T03:57:38.597Z,3.70
2019-03-03T03:58:38.594Z,3.40
2019-03-03T03:59:38.574Z,3.60
2019-03-03T04:00:38.582Z,3.80
2019-03-03T04:01:38.556Z,3.50
2019-03-03T04:02:38.545Z,3.40
2019-03-03T04:03:38.532Z,3.80
2019-03-03T04:04:38.526Z,3.90
2019-03-03T04:05:38.528Z,3.60
2019-03-03T04:06:38.505Z,3.50
2019-03-03T04:07:38.488Z,3.50
2019-03-03T04:08:38.480Z,3.50
2019-03-03T04:09:38.512Z,3.70
2019-03-03T04:10:38.502Z,3.30
2019-03-03T04:11:38.450Z,3.30
2019-03-03T04:12:38.434Z,3.50
2019-03-03T04:13:38.428Z,3.60
2019-03-03T04:14:38.414Z,3.70
2019-03-03T04:15:38.422Z,3.40
2019-03-03T04:16:38.394Z,3.50
2019-03-03T04:17:38.409Z,3.70
2019-03-03T04:18:38.393Z,3.50
2019-03-03T04:19:38.363Z,3.40
2019-03-03T04:20:38.392Z,3.60
2019-03-03T04:21:38.344Z,3.50
2019-03-03T04:22:38.333Z,3.60
2019-03-03T04:23:38.324Z,3.50
2019-03-03T04:24:38.316Z,3.60
2019-03-03T04:25:38.297Z,3.60
2019-03-03T04:26:38.304Z,3.50
2019-03-03T04:27:38.281Z,3.40
2019-03-03T04:28:38.276Z,3.50
2019-03-03T04:29:38.263Z,3.60
2019-03-03T04:30:38.249Z,3.30
2019-03-03T04:31:38.250Z,3.30
2019-03-03T04:32:38.227Z,3.50
2019-03-03T04:33:38.217Z,3.50
2019-03-03T04:34:38.205Z,3.20
2019-03-03T04:35:38.202Z,3.50
2019-03-03T04:36:38.195Z,3.50
2019-03-03T04:37:38.175Z,3.50
2019-03-03T04:38:38.158Z,3.50
2019-03-03T04:39:38.155Z,3.70
2019-03-03T04:40:38.140Z,3.30
2019-03-03T04:41:38.148Z,3.40
2019-03-03T04:42:38.122Z,3.60
2019-03-03T04:43:38.106Z,3.50
2019-03-03T04:44:38.102Z,3.30
2019-03-03T04:45:38.093Z,3.30
2019-03-03T04:46:38.121Z,3.50
2019-03-03T04:47:38.065Z,3.40
2019-03-03T04:48:38.054Z,3.60
2019-03-03T04:49:38.049Z,3.30
2019-03-03T04:50:38.038Z,3.40
2019-03-03T04:51:38.026Z,3.30
2019-03-03T04:52:38.028Z,3.50
2019-03-03T04:53:38.005Z,3.10
2019-03-03T04:54:37.993Z,3.40
2019-03-03T04:55:37.982Z,3.50
2019-03-03T04:56:37.974Z,3.60
2019-03-03T04:57:37.990Z,3.20
2019-03-03T04:58:37.953Z,3.70
2019-03-03T04:59:37.943Z,3.60
2019-03-03T05:00:37.930Z,3.30
2019-03-03T05:01:37.923Z,3.50
2019-03-03T05:02:37.923Z,3.30
2019-03-03T05:03:37.901Z,3.60
2019-03-03T05:04:37.891Z,3.50
2019-03-03T05:05:37.882Z,3.30
2019-03-03T05:06:37.875Z,3.20
2019-03-03T05:07:37.913Z,3.50
2019-03-03T05:08:37.849Z,3.20
2019-03-03T05:09:37.839Z,3.40
2019-03-03T05:10:37.830Z,3.10
2019-03-03T05:11:37.824Z,3.20
2019-03-03T05:12:37.824Z,3.10
2019-03-03T05:13:37.797Z,3.40
2019-03-03T05:14:37.791Z,3.30
2019-03-03T05:15:37.783Z,3.30
2019-03-03T05:16:37.771Z,3.10
2019-03-03T05:17:37.778Z,3.10
2019-03-03T05:18:37.751Z,3.20
2019-03-03T05:19:37.741Z,3.40
2019-03-03T05:20:37.729Z,3.70
2019-03-03T05:21:37.779Z,3.40
2019-03-03T05:22:37.712Z,3.10
2019-03-03T05:23:37.711Z,3.20
2019-03-03T05:24:37.684Z,3.30
2019-03-03T05:25:37.675Z,3.50
2019-03-03T05:26:37.673Z,3.20
2019-03-03T05:27:37.660Z,3.50
2019-03-03T05:28:37.659Z,3.00
2019-03-03T05:29:37.637Z,3.10
2019-03-03T05:30:37.629Z,3.20
2019-03-03T05:31:37.614Z,3.30
2019-03-03T05:32:37.609Z,3.40
2019-03-03T05:33:37.611Z,3.30
2019-03-03T05:34:37.591Z,3.40
2019-03-03T05:35:37.573Z,3.20
2019-03-03T05:36:37.563Z,3.40
2019-03-03T05:37:37.559Z,3.60
2019-03-03T05:38:37.571Z,3.30
2019-03-03T05:39:37.539Z,3.20
2019-03-03T05:40:37.528Z,3.30
2019-03-03T05:41:37.524Z,3.20
2019-03-03T05:42:37.508Z,3.40
2019-03-03T05:43:37.519Z,3.00
2019-03-03T05:44:37.487Z,3.10
2019-03-03T05:45:37.476Z,3.00
2019-03-03T05:46:37.464Z,3.20
2019-03-03T05:47:37.454Z,2.90
2019-03-03T05:48:37.448Z,3.10
2019-03-03T05:49:37.468Z,3.10
2019-03-03T05:50:37.421Z,3.10
2019-03-03T05:51:37.410Z,3.00
2019-03-03T05:52:37.406Z,3.00
2019-03-03T05:53:37.391Z,3.40
2019-03-03T05:54:37.397Z,3.20
2019-03-03T05:55:37.371Z,2.90
2019-03-03T05:56:37.365Z,3.00
2019-03-03T05:57:37.349Z,2.90
2019-03-03T05:58:37.340Z,2.90
2019-03-03T05:59:37.349Z,2.90
2019-03-03T06:00:37.324Z,2.80
2019-03-03T06:01:37.308Z,2.90
2019-03-03T06:02:37.298Z,2.70
2019-03-03T06:03:37.290Z,2.80
2019-03-03T06:04:37.289Z,2.80
2019-03-03T06:05:37.268Z,3.10
2019-03-03T06:06:37.251Z,3.00
2019-03-03T06:07:37.242Z,3.20
2019-03-03T06:08:37.230Z,3.00
2019-03-03T06:09:37.241Z,3.10
2019-03-03T06:10:37.213Z,2.70
2019-03-03T06:11:37.216Z,2.90
2019-03-03T06:12:37.195Z,2.70
2019-03-03T06:13:37.194Z,2.80
2019-03-03T06:14:37.208Z,2.70
2019-03-03T06:15:37.158Z,2.80
2019-03-03T06:16:37.151Z,2.90
2019-03-03T06:17:37.136Z,3.00
2019-03-03T06:18:37.132Z,2.80
2019-03-03T06:19:37.124Z,3.00
2019-03-03T06:20:37.122Z,2.90
2019-03-03T06:21:37.096Z,2.90
2019-03-03T06:22:37.098Z,2.90
2019-03-03T06:23:37.073Z,3.10
2019-03-03T06:24:37.073Z,3.10
2019-03-03T06:25:37.068Z,3.00
2019-03-03T06:26:37.042Z,3.00
2019-03-03T06:27:37.035Z,3.00
2019-03-03T06:28:37.025Z,3.20
2019-03-03T06:29:37.010Z,3.10
2019-03-03T06:30:37.019Z,2.80
2019-03-03T06:31:36.993Z,2.80
2019-03-03T06:32:36.983Z,2.90
2019-03-03T06:33:36.966Z,3.10
2019-03-03T06:34:36.959Z,3.00
2019-03-03T06:35:36.968Z,2.90
2019-03-03T06:36:36.937Z,2.70
2019-03-03T06:37:36.932Z,2.70
2019-03-03T06:38:36.927Z,2.90
2019-03-03T06:39:36.910Z,3.10
2019-03-03T06:40:36.941Z,3.20
2019-03-03T06:41:36.890Z,3.00
2019-03-03T06:42:36.877Z,3.10
2019-03-03T06:43:36.870Z,3.10
2019-03-03T06:44:36.851Z,3.40
2019-03-03T06:45:36.851Z,3.30
2019-03-03T06:46:36.850Z,3.50
2019-03-03T06:47:36.824Z,3.60
2019-03-03T06:48:36.815Z,3.70
2019-03-03T06:49:36.803Z,3.50
2019-03-03T06:50:36.788Z,3.30
2019-03-03T06:51:36.792Z,3.70
2019-03-03T06:52:36.776Z,3.60
2019-03-03T06:53:36.759Z,3.60
2019-03-03T06:54:36.751Z,3.40
2019-03-03T06:55:36.741Z,3.40
2019-03-03T06:56:36.764Z,3.30
2019-03-03T06:57:36.715Z,3.60
2019-03-03T06:58:36.703Z,3.50
2019-03-03T06:59:36.696Z,3.40
2019-03-03T07:00:36.685Z,3.40
2019-03-03T07:01:36.694Z,3.70
2019-03-03T07:02:36.668Z,3.90
2019-03-03T07:03:36.655Z,3.50
2019-03-03T07:04:36.643Z,3.60
2019-03-03T07:05:36.639Z,3.70
2019-03-03T07:06:36.654Z,3.60
2019-03-03T07:07:36.610Z,3.80
2019-03-03T07:08:36.603Z,3.80
2019-03-03T07:09:36.593Z,3.40
2019-03-03T07:10:36.580Z,4.00
2019-03-03T07:11:36.574Z,3.90
2019-03-03T07:12:36.587Z,3.90
2019-03-03T07:13:36.548Z,3.90
2019-03-03T07:14:36.536Z,4.00
2019-03-03T07:15:36.530Z,4.40
2019-03-03T07:16:36.524Z,4.30
2019-03-03T07:17:36.533Z,4.00
2019-03-03T07:18:36.494Z,4.70
2019-03-03T07:19:36.486Z,4.50
2019-03-03T07:20:36.480Z,4.70
2019-03-03T07:21:36.471Z,4.70
2019-03-03T07:22:36.451Z,4.90
2019-03-03T07:23:36.459Z,5.00
2019-03-03T07:24:36.446Z,5.40
2019-03-03T07:25:36.429Z,5.10
2019-03-03T07:26:36.414Z,5.00
2019-03-03T07:27:36.403Z,5.10
2019-03-03T07:28:36.406Z,5.10
2019-03-03T07:29:36.389Z,5.10
2019-03-03T07:30:36.373Z,5.00
2019-03-03T07:31:36.369Z,4.90
2019-03-03T07:32:36.350Z,5.10
2019-03-03T07:33:36.363Z,5.40
2019-03-03T07:34:36.332Z,5.20
2019-03-03T07:35:36.319Z,4.80
2019-03-03T07:36:36.309Z,5.00
2019-03-03T07:37:36.301Z,5.00
2019-03-03T07:38:36.311Z,4.50
2019-03-03T07:39:36.280Z,4.90
2019-03-03T07:40:36.283Z,4.80
2019-03-03T07:41:36.278Z,5.00
2019-03-03T07:42:36.250Z,5.20
2019-03-03T07:43:36.239Z,5.00
2019-03-03T07:44:36.239Z,5.00
2019-03-03T07:45:36.216Z,4.70
2019-03-03T07:46:36.205Z,4.90
2019-03-03T07:47:36.196Z,4.70
2019-03-03T07:48:36.187Z,4.90
2019-03-03T07:49:36.206Z,4.70
2019-03-03T07:50:36.189Z,4.60
2019-03-03T07:51:36.155Z,4.40
2019-03-03T07:52:36.142Z,4.60
2019-03-03T07:53:36.132Z,4.70
2019-03-03T07:54:36.164Z,4.40
2019-03-03T07:55:36.111Z,4.80
2019-03-03T07:56:36.102Z,4.40
2019-03-03T07:57:36.090Z,4.10
2019-03-03T07:58:36.075Z,5.00
2019-03-03T07:59:36.069Z,5.30
2019-03-03T08:00:36.100Z,5.50
2019-03-03T08:01:36.046Z,5.00
2019-03-03T08:02:36.036Z,5.30
2019-03-03T08:03:36.023Z,4.60
2019-03-03T08:04:36.017Z,4.60
2019-03-03T08:05:36.036Z,4.80
2019-03-03T08:06:35.993Z,4.80
2019-03-03T08:07:35.985Z,4.70
2019-03-03T08:08:35.972Z,4.20
2019-03-03T08:09:35.974Z,4.70
2019-03-03T08:10:35.951Z,4.40
2019-03-03T08:11:35.952Z,4.70
2019-03-03T08:12:35.935Z,4.40
2019-03-03T08:13:35.929Z,4.70
2019-03-03T08:14:35.913Z,4.60
2019-03-03T08:15:35.899Z,4.70
2019-03-03T08:16:35.905Z,4.30
2019-03-03T08:17:35.880Z,4.30
2019-03-03T08:18:35.875Z,4.70
2019-03-03T08:19:35.864Z,4.30
2019-03-03T08:20:35.842Z,4.20
2019-03-03T08:21:35.859Z,4.40
2019-03-03T08:22:35.826Z,4.30
2019-03-03T08:23:35.814Z,4.40
2019-03-03T08:24:35.816Z,4.30
2019-03-03T08:25:35.796Z,3.70
2019-03-03T08:26:35.786Z,3.80
2019-03-03T08:27:35.793Z,3.80
2019-03-03T08:28:35.765Z,4.10
2019-03-03T08:29:35.756Z,4.50
2019-03-03T08:30:35.746Z,4.10
2019-03-03T08:31:35.734Z,4.00
2019-03-03T08:32:35.737Z,4.00
2019-03-03T08:33:35.707Z,4.00
2019-03-03T08:34:35.696Z,3.70
2019-03-03T08:35:35.689Z,4.00
2019-03-03T08:36:35.680Z,4.30
2019-03-03T08:37:35.693Z,4.10
2019-03-03T08:38:35.660Z,3.80
2019-03-03T08:39:35.643Z,4.30
2019-03-03T08:40:35.639Z,4.50
2019-03-03T08:41:35.625Z,4.30
2019-03-03T08:42:35.612Z,4.40
2019-03-03T08:43:35.631Z,4.20
2019-03-03T08:44:35.595Z,5.00
2019-03-03T08:45:35.581Z,5.00
2019-03-03T08:46:35.573Z,4.70
2019-03-03T08:47:35.577Z,4.60
2019-03-03T08:48:35.564Z,4.10
2019-03-03T08:49:35.543Z,4.20
2019-03-03T08:50:35.525Z,3.90
2019-03-03T08:51:35.524Z,4.30
2019-03-03T08:52:35.509Z,3.80
2019-03-03T08:53:35.517Z,4.00
2019-03-03T08:54:35.494Z,4.00
2019-03-03T08:55:35.486Z,4.30
2019-03-03T08:56:35.469Z,3.80
2019-03-03T08:57:35.453Z,4.20
2019-03-03T08:58:35.465Z,3.70
2019-03-03T08:59:35.434Z,3.90
2019-03-03T09:00:35.429Z,3.90
2019-03-03T09:01:35.457Z,3.90
2019-03-03T09:02:35.409Z,3.20
2019-03-03T09:03:35.441Z,3.80
2019-03-03T09:04:35.384Z,4.10
2019-03-03T09:05:35.383Z,4.10
2019-03-03T09:06:35.361Z,4.10
2019-03-03T09:07:35.355Z,4.00
2019-03-03T09:08:35.355Z,3.70
2019-03-03T09:09:35.350Z,3.80
2019-03-03T09:10:35.330Z,3.80
2019-03-03T09:11:35.304Z,3.80
2019-03-03T09:12:35.299Z,4.00
2019-03-03T09:13:35.293Z,3.90
2019-03-03T09:14:35.303Z,3.70
2019-03-03T09:15:35.269Z,3.60
2019-03-03T09:16:35.255Z,3.30
2019-03-03T09:17:35.250Z,3.40
2019-03-03T09:18:35.239Z,3.50
2019-03-03T09:19:35.243Z,3.00
2019-03-03T09:20:35.215Z,3.60
2019-03-03T09:21:35.202Z,3.30
2019-03-03T09:22:35.188Z,3.50
2019-03-03T09:23:35.193Z,3.30
2019-03-03T09:24:35.190Z,3.40
2019-03-03T09:25:35.159Z,2.80
2019-03-03T09:26:35.150Z,3.60
2019-03-03T09:27:35.135Z,3.20
2019-03-03T09:28:35.148Z,3.50
2019-03-03T09:29:35.143Z,3.20
2019-03-03T09:30:35.124Z,3.40
2019-03-03T09:31:35.100Z,3.20
2019-03-03T09:32:35.097Z,3.40
2019-03-03T09:33:36.758Z,3.10
2019-03-03T09:34:35.084Z,3.40
2019-03-03T09:35:35.057Z,3.20
2019-03-03T09:36:35.044Z,3.00
2019-03-03T09:37:35.032Z,3.20
2019-03-03T09:38:35.028Z,3.20
2019-03-03T09:39:35.042Z,3.20
2019-03-03T09:40:35.008Z,3.30
2019-03-03T09:41:34.994Z,3.10
2019-03-03T09:42:34.990Z,3.20
2019-03-03T09:43:34.969Z,3.10
2019-03-03T09:44:34.968Z,3.00
2019-03-03T09:45:34.978Z,3.30
2019-03-03T09:46:34.936Z,3.20
2019-03-03T09:47:34.957Z,3.00
2019-03-03T09:48:34.925Z,3.10
2019-03-03T09:49:34.912Z,2.90
2019-03-03T09:50:34.920Z,2.90
2019-03-03T09:51:34.933Z,3.30
2019-03-03T09:52:34.876Z,3.00
2019-03-03T09:53:34.867Z,2.90
2019-03-03T09:54:34.853Z,2.90
2019-03-03T09:55:34.871Z,2.70
2019-03-03T09:56:34.837Z,2.90
2019-03-03T09:57:34.823Z,3.10
2019-03-03T09:58:34.809Z,2.90
2019-03-03T09:59:34.802Z,3.20
2019-03-03T10:00:34.815Z,2.60
2019-03-03T10:01:34.783Z,2.90
2019-03-03T10:02:34.774Z,2.80
2019-03-03T10:03:34.765Z,3.00
2019-03-03T10:04:34.759Z,3.20
2019-03-03T10:05:34.741Z,3.00
2019-03-03T10:06:34.759Z,2.80
2019-03-03T10:07:34.724Z,2.70
2019-03-03T10:08:34.728Z,2.80
2019-03-03T10:09:34.698Z,2.80
2019-03-03T10:10:34.709Z,2.80
2019-03-03T10:11:34.688Z,3.10
2019-03-03T10:12:34.665Z,2.70
2019-03-03T10:13:34.663Z,2.80
2019-03-03T10:14:34.654Z,2.70
2019-03-03T10:15:34.652Z,2.80
2019-03-03T10:16:34.642Z,2.70
2019-03-03T10:17:34.627Z,2.70
2019-03-03T10:18:34.604Z,2.70
2019-03-03T10:19:34.599Z,2.70
2019-03-03T10:20:34.607Z,2.90
2019-03-03T10:21:34.696Z,2.50
2019-03-03T10:22:34.570Z,2.70
2019-03-03T10:23:34.566Z,2.60
2019-03-03T10:24:34.550Z,2.40
2019-03-03T10:25:34.532Z,2.80
2019-03-03T10:26:35.140Z,2.50
2019-03-03T10:27:34.537Z,2.60
2019-03-03T10:28:34.500Z,2.60
2019-03-03T10:29:34.489Z,2.90
2019-03-03T10:30:34.489Z,2.50
2019-03-03T10:31:34.465Z,2.60
2019-03-03T10:32:34.477Z,2.40
2019-03-03T10:33:34.471Z,2.50
2019-03-03T10:34:34.447Z,2.70
2019-03-03T10:35:34.433Z,2.80
2019-03-03T10:36:34.415Z,2.80
2019-03-03T10:37:34.435Z,2.60
2019-03-03T10:38:36.336Z,2.40
2019-03-03T10:39:34.381Z,2.60
2019-03-03T10:40:34.372Z,2.60
2019-03-03T10:41:34.365Z,2.50
2019-03-03T10:42:34.347Z,2.50
2019-03-03T10:43:34.359Z,2.70
2019-03-03T10:44:34.334Z,2.60
2019-03-03T10:45:34.332Z,2.50
2019-03-03T10:46:34.315Z,2.60
2019-03-03T10:47:34.301Z,2.40
2019-03-03T10:48:34.315Z,2.40
2019-03-03T10:49:34.284Z,2.30
2019-03-03T10:50:34.276Z,2.50
2019-03-03T10:51:34.260Z,2.70
2019-03-03T10:52:34.250Z,2.30
2019-03-03T10:53:34.270Z,2.70
2019-03-03T10:54:34.236Z,2.60
2019-03-03T10:55:34.250Z,2.50
2019-03-03T10:56:34.286Z,2.50
2019-03-03T10:57:34.209Z,2.50
2019-03-03T10:58:34.199Z,2.60
2019-03-03T10:59:34.169Z,2.60
2019-03-03T11:00:34.163Z,2.60
2019-03-03T11:01:34.182Z,2.50
2019-03-03T11:02:34.154Z,2.50
2019-03-03T11:03:34.175Z,2.80
2019-03-03T11:04:34.164Z,2.40
2019-03-03T11:05:34.171Z,2.20
2019-03-03T11:06:34.103Z,2.40
2019-03-03T11:07:34.090Z,2.50
2019-03-03T11:08:34.081Z,2.50
2019-03-03T11:09:34.082Z,2.60
2019-03-03T11:10:34.056Z,2.30
2019-03-03T11:11:34.084Z,2.70
2019-03-03T11:12:34.045Z,2.30
2019-03-03T11:13:34.027Z,2.30
2019-03-03T11:14:34.033Z,2.30
2019-03-03T11:15:34.010Z,2.10
2019-03-03T11:16:34.017Z,2.20
2019-03-03T11:17:33.987Z,2.40
2019-03-03T11:18:33.980Z,2.30
2019-03-03T11:19:34.012Z,2.70
2019-03-03T11:20:33.950Z,2.60
2019-03-03T11:21:33.939Z,2.40
2019-03-03T11:22:33.928Z,2.30
2019-03-03T11:23:33.964Z,2.50
2019-03-03T11:24:33.927Z,2.20
2019-03-03T11:25:33.961Z,2.30
2019-03-03T11:26:33.912Z,2.50
2019-03-03T11:27:33.889Z,2.20
2019-03-03T11:28:33.928Z,2.30
2019-03-03T11:29:33.887Z,2.40
2019-03-03T11:30:33.890Z,2.30
2019-03-03T11:31:33.880Z,2.40
2019-03-03T11:32:33.883Z,2.00
2019-03-03T11:33:33.820Z,2.20
2019-03-03T11:34:33.867Z,2.00
2019-03-03T11:35:33.838Z,2.60
2019-03-03T11:36:33.795Z,2.30
2019-03-03T11:37:33.840Z,2.70
2019-03-03T11:38:33.765Z,2.20
2019-03-03T11:39:33.755Z,2.50
2019-03-03T11:40:33.743Z,2.30
2019-03-03T11:41:33.764Z,2.10
2019-03-03T11:42:33.725Z,2.20
2019-03-03T11:43:33.709Z,2.10
2019-03-03T11:44:33.702Z,2.30
2019-03-03T11:45:33.701Z,2.20
2019-03-03T11:46:33.691Z,2.10
2019-03-03T11:47:33.670Z,2.40
2019-03-03T11:48:33.665Z,2.20
2019-03-03T11:49:33.660Z,2.20
2019-03-03T11:50:33.640Z,2.20
2019-03-03T11:51:33.654Z,1.90
2019-03-03T11:52:33.629Z,2.00
2019-03-03T11:53:33.628Z,2.10
2019-03-03T11:54:33.594Z,1.80
2019-03-03T11:55:33.588Z,2.20
2019-03-03T11:56:33.586Z,2.10
2019-03-03T11:57:33.565Z,2.20
2019-03-03T11:58:33.557Z,2.10
2019-03-03T11:59:33.547Z,2.10
2019-03-03T12:00:33.548Z,2.30
2019-03-03T12:01:33.550Z,2.10
2019-03-03T12:02:33.527Z,1.90
2019-03-03T12:03:33.503Z,1.90
2019-03-03T12:04:33.490Z,1.90
2019-03-03T12:05:33.486Z,2.10
2019-03-03T12:06:33.505Z,2.10
2019-03-03T12:07:33.458Z,2.10
2019-03-03T12:08:33.456Z,1.90
2019-03-03T12:09:33.453Z,2.00
2019-03-03T12:10:34.180Z,2.00
2019-03-03T12:11:33.424Z,1.90
2019-03-03T12:12:33.441Z,2.00
2019-03-03T12:13:33.395Z,1.80
2019-03-03T12:14:33.387Z,2.10
2019-03-03T12:15:33.375Z,1.80
2019-03-03T12:16:33.369Z,1.70
2019-03-03T12:17:33.367Z,1.90
2019-03-03T12:18:33.343Z,1.80
2019-03-03T12:19:33.330Z,1.90
2019-03-03T12:20:33.321Z,2.00
2019-03-03T12:21:33.315Z,1.80
2019-03-03T12:22:33.313Z,2.00
2019-03-03T12:23:33.291Z,2.00
2019-03-03T12:24:33.284Z,2.00
2019-03-03T12:25:33.284Z,2.00
2019-03-03T12:26:33.265Z,2.20
2019-03-03T12:27:33.268Z,2.20
2019-03-03T12:28:33.240Z,2.30
2019-03-03T12:29:33.227Z,2.60
2019-03-03T12:30:33.215Z,2.60
2019-03-03T12:31:33.207Z,2.40
2019-03-03T12:32:33.198Z,2.70
2019-03-03T12:33:33.199Z,3.00
2019-03-03T12:34:33.179Z,2.80
2019-03-03T12:35:33.162Z,2.90
2019-03-03T12:36:33.152Z,3.90
2019-03-03T12:37:33.141Z,4.30
2019-03-03T12:38:33.154Z,3.70
2019-03-03T12:39:33.171Z,3.60
2019-03-03T12:40:33.109Z,5.30
2019-03-03T12:41:33.110Z,33.90
2019-03-03T12:42:33.126Z,102.90
2019-03-03T12:43:33.108Z,162.70
2019-03-03T12:44:33.066Z,234.60
2019-03-03T12:45:33.059Z,262.40
2019-03-03T12:46:33.049Z,265.70
2019-03-03T12:47:33.033Z,243.60
2019-03-03T12:48:33.038Z,240.80
2019-03-03T12:49:33.034Z,222.20
2019-03-03T12:50:33.005Z,198.90
2019-03-03T12:51:33.017Z,191.20
2019-03-03T12:52:32.987Z,165.90
2019-03-03T12:53:32.974Z,154.00
2019-03-03T12:54:32.990Z,144.20
2019-03-03T12:55:32.954Z,147.00
2019-03-03T12:56:32.945Z,135.80
2019-03-03T12:57:32.931Z,131.50
2019-03-03T12:58:32.928Z,120.10
2019-03-03T12:59:32.939Z,118.20
2019-03-03T13:00:32.900Z,113.00
2019-03-03T13:01:32.892Z,108.40
2019-03-03T13:02:32.877Z,107.10
2019-03-03T13:03:32.865Z,100.50
2019-03-03T13:04:32.874Z,98.00
2019-03-03T13:05:32.850Z,93.50
2019-03-03T13:06:32.838Z,92.80
2019-03-03T13:07:32.835Z,88.80
2019-03-03T13:08:32.822Z,83.20
2019-03-03T13:09:32.838Z,83.40
2019-03-03T13:10:32.796Z,79.70
2019-03-03T13:11:32.787Z,79.10
2019-03-03T13:12:32.789Z,74.90
2019-03-03T13:13:32.764Z,72.10
2019-03-03T13:14:32.755Z,67.60
2019-03-03T13:15:32.752Z,66.80
2019-03-03T13:16:32.730Z,63.50